createdAt,value
2019-03-23T00:00:01.902Z,50.30
2019-03-23T00:01:37.812Z,46.05
2019-03-23T00:03:12.790Z,44.45
2019-03-23T00:04:48.022Z,43.15
2019-03-23T00:06:30.418Z,44.85
2019-03-23T00:07:59.819Z,44.70
2019-03-23T00:09:34.950Z,46.10
2019-03-23T00:11:09.888Z,46.92
2019-03-23T00:12:45.002Z,46.28
2019-03-23T00:14:19.914Z,45.50
2019-03-23T00:15:54.831Z,42.20
2019-03-23T00:17:30.003Z,37.33
2019-03-23T00:19:05.058Z,44.00
2019-03-23T00:20:39.960Z,47.73
2019-03-23T00:22:15.100Z,49.38
2019-03-23T00:23:50.224Z,47.35
2019-03-23T00:25:25.130Z,47.58
2019-03-23T00:27:00.154Z,46.02
2019-03-23T00:28:35.426Z,51.08
2019-03-23T00:30:11.538Z,48.55
2019-03-23T00:31:46.461Z,50.30
2019-03-23T00:33:21.377Z,45.63
2019-03-23T00:34:56.664Z,44.53
2019-03-23T00:36:41.055Z,50.17
2019-03-23T00:38:08.283Z,49.10
2019-03-23T00:39:43.252Z,46.42
2019-03-23T00:41:18.850Z,47.65
2019-03-23T00:42:54.691Z,53.08
2019-03-23T00:44:30.547Z,51.13
2019-03-23T00:46:06.147Z,49.53
2019-03-23T00:47:41.775Z,51.10
2019-03-23T00:49:17.363Z,51.28
2019-03-23T00:50:53.021Z,51.88
2019-03-23T00:52:28.861Z,51.73
2019-03-23T00:54:04.568Z,53.78
2019-03-23T00:55:40.158Z,49.18
2019-03-23T00:57:15.974Z,53.73
2019-03-23T00:58:51.803Z,50.40
2019-03-23T01:00:27.418Z,49.90
2019-03-23T01:02:03.121Z,43.60
2019-03-23T01:03:39.046Z,47.75
2019-03-23T01:05:14.800Z,48.42
2019-03-23T01:06:52.404Z,45.15
2019-03-23T01:08:26.708Z,44.67
2019-03-23T01:10:01.909Z,43.25
2019-03-23T01:11:37.167Z,46.45
2019-03-23T01:13:12.144Z,55.08
2019-03-23T01:14:47.447Z,45.30
2019-03-23T01:16:22.401Z,41.73
2019-03-23T01:17:57.738Z,38.67
2019-03-23T01:19:32.661Z,39.40
2019-03-23T01:21:07.969Z,41.13
2019-03-23T01:22:43.030Z,40.28
2019-03-23T01:24:18.338Z,40.15
2019-03-23T01:25:53.242Z,37.05
2019-03-23T01:27:28.143Z,43.23
2019-03-23T01:29:03.045Z,45.65
2019-03-23T01:30:38.243Z,39.30
2019-03-23T01:32:13.196Z,39.18
2019-03-23T01:33:48.163Z,35.68
2019-03-23T01:35:23.238Z,36.40
2019-03-23T01:37:02.780Z,38.05
2019-03-23T01:38:35.557Z,39.80
2019-03-23T01:40:10.789Z,39.42
2019-03-23T01:41:45.827Z,42.98
2019-03-23T01:43:20.755Z,48.90
2019-03-23T01:44:55.689Z,44.23
2019-03-23T01:46:30.590Z,38.95
2019-03-23T01:48:05.493Z,40.88
2019-03-23T01:49:41.465Z,40.08
2019-03-23T01:51:16.637Z,39.85
2019-03-23T01:52:52.039Z,44.35
2019-03-23T01:54:26.950Z,53.65
2019-03-23T01:56:01.889Z,43.40
2019-03-23T01:57:37.514Z,48.13
2019-03-23T01:59:12.683Z,48.13
2019-03-23T02:00:48.087Z,48.48
2019-03-23T02:02:23.341Z,56.63
2019-03-23T02:03:58.507Z,51.65
2019-03-23T02:05:33.739Z,56.90
2019-03-23T02:07:13.855Z,58.60
2019-03-23T02:08:45.630Z,59.60
2019-03-23T02:10:20.726Z,53.02
2019-03-23T02:11:55.891Z,58.90
2019-03-23T02:13:30.880Z,69.45
2019-03-23T02:15:07.165Z,63.95
2019-03-23T02:16:42.070Z,56.63
2019-03-23T02:18:17.259Z,64.55
2019-03-23T02:19:52.236Z,61.98
2019-03-23T02:21:27.161Z,69.05
2019-03-23T02:23:02.078Z,61.88
2019-03-23T02:24:36.983Z,70.45
2019-03-23T02:26:12.164Z,62.43
2019-03-23T02:27:47.089Z,63.33
2019-03-23T02:29:22.270Z,65.03
2019-03-23T02:30:57.183Z,61.68
2019-03-23T02:32:32.323Z,60.45
2019-03-23T02:34:07.495Z,64.30
2019-03-23T02:35:42.398Z,63.17
2019-03-23T02:37:27.162Z,54.58
2019-03-23T02:38:53.958Z,58.42
2019-03-23T02:40:29.197Z,55.40
2019-03-23T02:42:04.270Z,46.33
2019-03-23T02:43:39.368Z,53.08
2019-03-23T02:45:14.529Z,63.00
2019-03-23T02:46:49.539Z,56.23
2019-03-23T02:48:24.445Z,60.43
2019-03-23T02:49:59.451Z,59.50
2019-03-23T02:51:34.359Z,61.08
2019-03-23T02:53:09.514Z,62.98
2019-03-23T02:54:44.419Z,58.40
2019-03-23T02:56:19.638Z,52.75
2019-03-23T02:57:54.558Z,57.53
2019-03-23T02:59:29.783Z,56.60
2019-03-23T03:01:04.763Z,55.85
2019-03-23T03:02:40.508Z,54.30
2019-03-23T03:04:15.406Z,53.10
2019-03-23T03:05:50.308Z,58.15
2019-03-23T03:07:25.203Z,65.90
2019-03-23T03:09:00.135Z,59.55
2019-03-23T03:10:41.922Z,55.00
2019-03-23T03:12:16.958Z,58.52
2019-03-23T03:13:51.984Z,60.17
2019-03-23T03:15:27.088Z,59.77
2019-03-23T03:17:02.145Z,58.05
2019-03-23T03:18:37.069Z,50.90
2019-03-23T03:20:12.106Z,59.55
2019-03-23T03:21:47.358Z,51.90
2019-03-23T03:23:22.561Z,52.03
2019-03-23T03:24:57.595Z,50.48
2019-03-23T03:26:32.500Z,54.45
2019-03-23T03:28:07.741Z,57.27
2019-03-23T03:29:42.676Z,58.98
2019-03-23T03:31:17.872Z,59.95
2019-03-23T03:32:52.774Z,51.75
2019-03-23T03:34:27.936Z,46.45
2019-03-23T03:36:02.843Z,53.00
2019-03-23T03:37:38.047Z,56.18
2019-03-23T03:39:13.055Z,57.17
2019-03-23T03:40:48.081Z,64.60
2019-03-23T03:42:23.047Z,65.47
2019-03-23T03:43:58.145Z,68.87
2019-03-23T03:45:33.099Z,59.30
2019-03-23T03:47:08.079Z,55.35
2019-03-23T03:48:42.980Z,54.13
2019-03-23T03:50:18.055Z,50.50
2019-03-23T03:51:53.073Z,46.15
2019-03-23T03:53:28.042Z,51.55
2019-03-23T03:55:02.986Z,55.75
2019-03-23T03:56:38.170Z,55.98
2019-03-23T03:58:13.322Z,56.83
2019-03-23T03:59:48.485Z,55.10
2019-03-23T04:01:23.639Z,63.30
2019-03-23T04:02:58.696Z,63.83
2019-03-23T04:04:33.971Z,59.33
2019-03-23T04:06:08.888Z,50.05
2019-03-23T04:07:43.859Z,42.78
2019-03-23T04:09:18.874Z,44.48
2019-03-23T04:10:53.840Z,45.90
2019-03-23T04:12:29.042Z,47.20
2019-03-23T04:14:04.010Z,45.05
2019-03-23T04:15:38.939Z,42.85
2019-03-23T04:17:13.841Z,40.43
2019-03-23T04:18:49.720Z,45.75
2019-03-23T04:20:24.619Z,51.95
2019-03-23T04:21:59.876Z,55.55
2019-03-23T04:23:34.847Z,55.12
2019-03-23T04:25:10.840Z,59.15
2019-03-23T04:26:45.792Z,55.92
2019-03-23T04:28:20.800Z,70.52
2019-03-23T04:29:55.764Z,55.35
2019-03-23T04:31:30.709Z,46.88
2019-03-23T04:33:05.603Z,47.85
2019-03-23T04:34:40.758Z,46.30
2019-03-23T04:36:15.683Z,50.67
2019-03-23T04:37:50.579Z,44.42
2019-03-23T04:39:25.474Z,44.53
2019-03-23T04:41:00.630Z,44.30
2019-03-23T04:42:35.755Z,46.95
2019-03-23T04:44:10.655Z,44.35
2019-03-23T04:45:45.653Z,46.42
2019-03-23T04:47:20.635Z,43.05
2019-03-23T04:48:55.541Z,44.50
2019-03-23T04:50:30.437Z,44.73
2019-03-23T04:52:05.640Z,44.25
2019-03-23T04:53:40.631Z,40.73
2019-03-23T04:55:15.604Z,42.60
2019-03-23T04:56:50.538Z,43.40
2019-03-23T04:58:25.433Z,45.73
2019-03-23T05:00:00.689Z,47.27
2019-03-23T05:01:36.044Z,42.43
2019-03-23T05:03:10.933Z,42.62
2019-03-23T05:04:46.069Z,41.33
2019-03-23T05:06:20.999Z,40.80
2019-03-23T05:07:56.221Z,43.08
2019-03-23T05:09:31.171Z,40.70
2019-03-23T05:11:06.066Z,40.60
2019-03-23T05:12:41.006Z,44.03
2019-03-23T05:14:15.894Z,47.33
2019-03-23T05:15:51.049Z,42.60
2019-03-23T05:17:26.527Z,44.73
2019-03-23T05:19:01.536Z,47.43
2019-03-23T05:20:36.850Z,43.90
2019-03-23T05:22:12.018Z,43.58
2019-03-23T05:23:46.917Z,40.95
2019-03-23T05:25:24.886Z,41.15
2019-03-23T05:26:59.890Z,41.42
2019-03-23T05:28:34.781Z,43.83
2019-03-23T05:30:09.958Z,48.63
2019-03-23T05:31:44.873Z,51.58
2019-03-23T05:33:19.761Z,66.42
2019-03-23T05:34:54.685Z,64.55
2019-03-23T05:36:29.616Z,63.13
2019-03-23T05:38:04.554Z,60.52
2019-03-23T05:39:39.453Z,48.40
2019-03-23T05:41:14.361Z,47.05
2019-03-23T05:42:49.905Z,44.50
2019-03-23T05:44:25.516Z,39.95
2019-03-23T05:46:01.100Z,35.75
2019-03-23T05:47:36.706Z,38.60
2019-03-23T05:49:12.810Z,37.17
2019-03-23T05:50:48.433Z,31.87
2019-03-23T05:52:24.264Z,32.48
2019-03-23T05:54:00.107Z,33.45
2019-03-23T05:55:36.001Z,28.38
2019-03-23T05:57:11.915Z,28.92
2019-03-23T05:58:47.761Z,30.57
2019-03-23T06:00:23.420Z,25.17
2019-03-23T06:01:59.294Z,27.00
2019-03-23T06:03:35.297Z,25.57
2019-03-23T06:05:10.892Z,24.87
2019-03-23T06:06:46.741Z,23.10
2019-03-23T06:08:22.336Z,26.00
2019-03-23T06:09:58.214Z,22.77
2019-03-23T06:11:34.045Z,25.07
2019-03-23T06:13:10.224Z,25.77
2019-03-23T06:14:46.320Z,23.00
2019-03-23T06:16:22.109Z,25.93
2019-03-23T06:17:57.980Z,22.20
2019-03-23T06:19:33.574Z,23.80
2019-03-23T06:21:09.435Z,21.90
2019-03-23T06:22:45.359Z,27.47
2019-03-23T06:24:20.947Z,24.93
2019-03-23T06:25:57.765Z,29.70
2019-03-23T06:27:33.348Z,30.03
2019-03-23T06:29:09.247Z,29.67
2019-03-23T06:30:45.138Z,31.03
2019-03-23T06:32:20.998Z,32.70
2019-03-23T06:33:56.818Z,34.83
2019-03-23T06:35:32.860Z,33.47
2019-03-23T06:37:08.706Z,31.83
2019-03-23T06:38:44.578Z,33.87
2019-03-23T06:40:20.418Z,37.30
2019-03-23T06:41:56.045Z,37.27
2019-03-23T06:43:31.629Z,37.40
2019-03-23T06:45:08.411Z,34.13
2019-03-23T06:46:44.238Z,37.17
2019-03-23T06:48:19.874Z,40.23
2019-03-23T06:49:55.745Z,37.50
2019-03-23T06:51:31.426Z,38.93
2019-03-23T06:53:07.268Z,36.37
2019-03-23T06:54:43.170Z,37.93
2019-03-23T06:56:18.771Z,39.37
2019-03-23T06:57:54.840Z,39.93
2019-03-23T06:59:30.937Z,39.07
2019-03-23T07:01:06.811Z,39.43
2019-03-23T07:02:42.404Z,42.67
2019-03-23T07:04:18.262Z,39.90
2019-03-23T07:05:53.853Z,45.97
2019-03-23T07:07:29.564Z,41.27
2019-03-23T07:09:15.724Z,42.40
2019-03-23T07:10:43.886Z,45.33
2019-03-23T07:12:19.468Z,42.87
2019-03-23T07:13:55.562Z,43.43
2019-03-23T07:15:31.158Z,40.97
2019-03-23T07:17:06.976Z,42.47
2019-03-23T07:18:42.657Z,44.47
2019-03-23T07:20:18.487Z,41.40
2019-03-23T07:21:54.078Z,41.10
2019-03-23T07:23:30.481Z,40.33
2019-03-23T07:25:07.601Z,39.60
2019-03-23T07:26:43.460Z,39.90
2019-03-23T07:28:19.120Z,42.63
2019-03-23T07:29:54.730Z,40.67
2019-03-23T07:31:30.325Z,44.00
2019-03-23T07:33:06.203Z,44.00
2019-03-23T07:34:41.809Z,39.90
2019-03-23T07:36:17.634Z,46.33
2019-03-23T07:37:53.225Z,49.13
2019-03-23T07:39:30.496Z,46.27
2019-03-23T07:41:06.571Z,45.60
2019-03-23T07:42:42.215Z,45.27
2019-03-23T07:44:18.128Z,39.53
2019-03-23T07:45:53.811Z,37.77
2019-03-23T07:47:29.401Z,38.87
2019-03-23T07:49:05.100Z,38.37
2019-03-23T07:50:40.722Z,40.93
2019-03-23T07:52:16.312Z,38.00
2019-03-23T07:53:52.005Z,40.33
2019-03-23T07:55:27.619Z,37.53
2019-03-23T07:57:03.654Z,39.57
2019-03-23T07:58:39.552Z,38.07
2019-03-23T08:00:18.507Z,42.33
2019-03-23T08:01:54.134Z,39.53
2019-03-23T08:03:29.069Z,40.70
2019-03-23T08:05:04.223Z,41.70
2019-03-23T08:06:39.247Z,38.17
2019-03-23T08:08:14.207Z,40.17
2019-03-23T08:09:49.341Z,39.20
2019-03-23T08:11:24.246Z,37.67
2019-03-23T08:12:59.225Z,38.93
2019-03-23T08:14:36.062Z,38.17
2019-03-23T08:16:11.438Z,36.17
2019-03-23T08:17:47.296Z,40.03
2019-03-23T08:19:22.881Z,36.57
2019-03-23T08:20:58.526Z,38.97
2019-03-23T08:22:34.115Z,35.00
2019-03-23T08:24:09.702Z,35.73
2019-03-23T08:25:45.285Z,36.67
2019-03-23T08:27:20.914Z,36.43
2019-03-23T08:28:56.580Z,37.37
2019-03-23T08:30:32.267Z,35.57
2019-03-23T08:32:07.875Z,32.53
2019-03-23T08:33:43.707Z,30.10
2019-03-23T08:35:19.549Z,33.63
2019-03-23T08:36:55.473Z,32.87
2019-03-23T08:38:31.529Z,33.83
2019-03-23T08:40:09.014Z,31.37
2019-03-23T08:41:44.856Z,32.53
2019-03-23T08:43:20.746Z,30.90
2019-03-23T08:44:56.336Z,29.37
2019-03-23T08:46:32.427Z,29.00
2019-03-23T08:48:08.314Z,31.10
2019-03-23T08:49:43.900Z,33.07
2019-03-23T08:51:19.499Z,30.93
2019-03-23T08:52:55.360Z,30.80
2019-03-23T08:54:31.219Z,27.43
2019-03-23T08:56:06.814Z,26.50
2019-03-23T08:57:42.409Z,29.93
2019-03-23T08:59:18.266Z,27.83
2019-03-23T09:00:53.958Z,26.53
2019-03-23T09:02:30.040Z,28.90
2019-03-23T09:04:05.627Z,26.47
2019-03-23T09:05:41.246Z,26.47
2019-03-23T09:07:16.868Z,26.50
2019-03-23T09:08:52.459Z,28.63
2019-03-23T09:10:28.322Z,23.67
2019-03-23T09:12:03.924Z,23.03
2019-03-23T09:13:40.976Z,24.17
2019-03-23T09:15:16.962Z,22.90
2019-03-23T09:16:52.559Z,23.23
2019-03-23T09:18:28.153Z,22.13
2019-03-23T09:20:04.469Z,21.63
2019-03-23T09:21:40.558Z,22.37
2019-03-23T09:23:15.813Z,18.97
2019-03-23T09:24:51.624Z,18.50
2019-03-23T09:26:27.364Z,21.17
2019-03-23T09:28:03.014Z,20.27
2019-03-23T09:29:38.603Z,18.83
2019-03-23T09:31:14.491Z,20.03
2019-03-23T09:32:50.106Z,20.30
2019-03-23T09:34:25.700Z,19.33
2019-03-23T09:36:01.294Z,18.27
2019-03-23T09:37:38.334Z,17.67
2019-03-23T09:39:14.424Z,15.13
2019-03-23T09:40:50.248Z,15.20
2019-03-23T09:42:25.950Z,19.07
2019-03-23T09:44:01.544Z,19.30
2019-03-23T09:45:37.480Z,18.90
2019-03-23T09:47:13.079Z,18.63
2019-03-23T09:48:48.927Z,17.63
2019-03-23T09:50:24.520Z,16.30
2019-03-23T09:52:00.163Z,17.50
2019-03-23T09:53:35.750Z,18.97
2019-03-23T09:55:11.654Z,19.73
2019-03-23T09:56:47.233Z,16.57
2019-03-23T09:58:23.187Z,15.77
2019-03-23T09:59:58.779Z,17.50
2019-03-23T10:01:34.554Z,12.73
2019-03-23T10:03:10.394Z,12.63
2019-03-23T10:04:45.998Z,11.47
2019-03-23T10:06:21.589Z,10.87
2019-03-23T10:07:57.515Z,12.90
2019-03-23T10:09:33.353Z,12.07
2019-03-23T10:11:08.958Z,11.43
2019-03-23T10:12:44.554Z,12.63
2019-03-23T10:14:20.190Z,12.90
2019-03-23T10:15:55.817Z,11.80
2019-03-23T10:17:31.888Z,11.67
2019-03-23T10:19:07.473Z,8.77
2019-03-23T10:20:43.072Z,9.17
2019-03-23T10:22:18.929Z,8.40
2019-03-23T10:23:54.689Z,7.43
2019-03-23T10:25:30.280Z,8.00
2019-03-23T10:27:05.981Z,8.60
2019-03-23T10:28:41.754Z,9.90
2019-03-23T10:30:17.686Z,10.23
2019-03-23T10:31:55.683Z,7.97
2019-03-23T10:33:30.852Z,10.07
2019-03-23T10:35:09.206Z,9.70
2019-03-23T10:36:44.789Z,7.70
2019-03-23T10:58:49.873Z,9.80
2019-03-23T11:00:26.036Z,11.07
2019-03-23T11:04:38.897Z,10.40
2019-03-23T11:10:41.535Z,8.57
2019-03-23T11:12:11.067Z,9.03
2019-03-23T11:13:47.001Z,8.47
2019-03-23T11:15:30.542Z,8.40
2019-03-23T11:17:07.647Z,10.20
2019-03-23T11:18:43.356Z,8.20
2019-03-23T11:20:19.447Z,9.50
2019-03-23T11:21:55.632Z,12.50
2019-03-23T11:23:31.671Z,7.80
2019-03-23T11:25:08.827Z,9.13
2019-03-23T11:26:44.616Z,10.50
2019-03-23T11:28:35.962Z,11.83
2019-03-23T11:30:12.334Z,10.13
2019-03-23T11:31:48.600Z,8.00
2019-03-23T11:33:24.958Z,10.57
2019-03-23T11:35:04.234Z,9.90
2019-03-23T11:36:41.594Z,10.37
2019-03-23T11:38:20.397Z,10.07
2019-03-23T11:39:57.404Z,9.83
2019-03-23T11:41:33.170Z,13.03
2019-03-23T11:43:08.919Z,10.37
2019-03-23T11:44:44.922Z,10.67
2019-03-23T11:46:22.741Z,11.43
2019-03-23T11:47:58.646Z,8.53
2019-03-23T11:49:34.869Z,9.70
2019-03-23T11:51:10.820Z,11.70
2019-03-23T11:52:47.180Z,9.67
2019-03-23T11:54:26.767Z,10.13
2019-03-23T11:56:04.383Z,9.67
2019-03-23T11:57:41.983Z,9.47
2019-03-23T11:59:26.108Z,9.03
2019-03-23T12:01:04.944Z,10.83
2019-03-23T12:02:46.228Z,9.17
2019-03-23T12:04:25.217Z,9.23
2019-03-23T12:06:04.403Z,12.10
2019-03-23T12:07:48.117Z,9.70
2019-03-23T12:09:32.555Z,9.67
2019-03-23T12:15:46.666Z,9.80
2019-03-23T12:17:24.776Z,11.23
2019-03-23T12:19:05.544Z,10.83
2019-03-23T12:20:48.242Z,8.68
2019-03-23T12:23:03.615Z,7.47
2019-03-23T12:25:09.079Z,8.43
2019-03-23T12:28:49.287Z,10.60
2019-03-23T12:30:25.206Z,9.97
2019-03-23T12:32:07.830Z,10.30
2019-03-23T12:34:02.716Z,11.37
2019-03-23T12:35:46.133Z,9.40
2019-03-23T12:37:23.236Z,8.13
2019-03-23T12:38:59.056Z,10.27
2019-03-23T12:40:36.839Z,10.07
2019-03-23T12:42:12.914Z,12.33
2019-03-23T12:43:49.387Z,10.63
2019-03-23T12:45:30.746Z,12.17
2019-03-23T12:47:11.145Z,11.20
2019-03-23T12:48:47.588Z,11.63
2019-03-23T12:50:43.651Z,13.57
2019-03-23T12:52:19.471Z,11.73
2019-03-23T12:53:55.467Z,13.70
2019-03-23T12:55:34.104Z,12.97
2019-03-23T12:57:10.111Z,13.37
2019-03-23T12:58:49.318Z,13.27
2019-03-23T13:00:25.433Z,11.33
2019-03-23T13:02:01.435Z,11.57
2019-03-23T13:03:38.763Z,12.97
2019-03-23T13:05:14.935Z,13.27
2019-03-23T13:06:50.679Z,14.43
2019-03-23T13:08:26.399Z,12.07
2019-03-23T13:10:02.205Z,11.47
2019-03-23T13:11:37.971Z,10.93
2019-03-23T13:13:13.756Z,13.43
2019-03-23T13:14:49.755Z,13.30
2019-03-23T13:16:25.731Z,13.33
2019-03-23T13:18:03.066Z,15.30
2019-03-23T13:19:39.033Z,11.03
2019-03-23T13:21:14.849Z,12.80
2019-03-23T13:22:50.867Z,14.30
2019-03-23T13:24:26.632Z,13.57
2019-03-23T13:26:06.854Z,10.77
2019-03-23T13:27:42.868Z,13.23
2019-03-23T13:29:18.608Z,11.97
2019-03-23T13:30:54.488Z,13.13
2019-03-23T13:32:30.273Z,11.43
2019-03-23T13:34:05.890Z,13.13
2019-03-23T13:35:41.715Z,12.47
2019-03-23T13:37:17.617Z,12.83
2019-03-23T13:38:53.240Z,11.57
2019-03-23T13:40:28.824Z,13.87
2019-03-23T13:42:04.487Z,11.67
2019-03-23T13:43:39.431Z,11.30
2019-03-23T13:45:16.488Z,12.03
2019-03-23T13:46:51.425Z,12.80
2019-03-23T13:48:26.340Z,10.23
2019-03-23T13:50:01.233Z,11.27
2019-03-23T13:51:36.930Z,11.07
2019-03-23T13:53:11.869Z,13.10
2019-03-23T13:54:46.762Z,13.17
2019-03-23T13:56:21.668Z,11.83
2019-03-23T13:57:59.530Z,12.13
2019-03-23T13:59:35.360Z,11.90
2019-03-23T14:01:11.017Z,12.17
2019-03-23T14:02:46.857Z,11.07
2019-03-23T14:04:22.470Z,10.93
2019-03-23T14:05:58.057Z,11.17
2019-03-23T14:07:33.649Z,14.90
2019-03-23T14:09:10.113Z,12.23
2019-03-23T14:10:45.986Z,16.47
2019-03-23T14:12:21.578Z,11.60
2019-03-23T14:13:57.172Z,11.47
2019-03-23T14:15:32.927Z,11.00
2019-03-23T14:17:08.573Z,13.80
2019-03-23T14:18:44.395Z,13.77
2019-03-23T14:20:19.981Z,13.10
2019-03-23T14:21:55.652Z,12.33
2019-03-23T14:23:30.606Z,12.70
2019-03-23T14:25:05.904Z,12.00
2019-03-23T14:26:40.835Z,13.83
2019-03-23T14:28:15.807Z,12.30
2019-03-23T14:29:51.046Z,11.90
2019-03-23T14:31:26.214Z,12.53
2019-03-23T14:33:01.402Z,14.60
2019-03-23T14:34:37.843Z,13.60
2019-03-23T14:36:13.860Z,15.97
2019-03-23T14:37:49.971Z,13.63
2019-03-23T14:39:25.824Z,15.73
2019-03-23T14:41:01.480Z,12.60
2019-03-23T14:42:37.300Z,13.30
2019-03-23T14:44:12.966Z,15.07
2019-03-23T14:45:48.548Z,15.07
2019-03-23T14:47:24.136Z,15.40
2019-03-23T14:49:01.881Z,13.27
2019-03-23T14:50:37.632Z,14.80
2019-03-23T14:52:12.568Z,13.43
2019-03-23T14:53:47.723Z,15.17
2019-03-23T14:55:22.666Z,13.97
2019-03-23T14:56:57.834Z,14.13
2019-03-23T14:58:32.764Z,14.43
2019-03-23T15:00:09.638Z,12.77
2019-03-23T15:01:44.570Z,13.97
2019-03-23T15:03:19.706Z,14.97
2019-03-23T15:04:54.716Z,14.63
2019-03-23T15:06:29.626Z,15.20
2019-03-23T15:08:04.551Z,15.40
2019-03-23T15:09:40.357Z,14.30
2019-03-23T15:11:15.956Z,16.40
2019-03-23T15:12:51.569Z,14.70
2019-03-23T15:14:27.209Z,18.60
2019-03-23T15:16:02.804Z,15.57
2019-03-23T15:17:48.226Z,14.37
2019-03-23T15:19:15.971Z,15.70
2019-03-23T15:20:51.897Z,15.57
2019-03-23T15:22:27.740Z,15.67
2019-03-23T15:24:03.819Z,16.27
2019-03-23T15:25:39.567Z,42.60
2019-03-23T15:27:14.929Z,38.33
2019-03-23T15:28:50.088Z,22.73
2019-03-23T15:30:25.483Z,18.13
2019-03-23T15:32:00.914Z,19.00
2019-03-23T15:33:35.852Z,14.10
2019-03-23T15:35:10.814Z,18.97
2019-03-23T15:36:45.954Z,18.70
2019-03-23T15:38:20.960Z,18.50
2019-03-23T15:39:56.613Z,18.20
2019-03-23T15:41:32.485Z,16.00
2019-03-23T15:43:07.510Z,18.13
2019-03-23T15:44:43.068Z,14.80
2019-03-23T15:46:18.690Z,17.37
2019-03-23T15:47:53.640Z,16.90
2019-03-23T15:49:29.186Z,18.47
2019-03-23T15:51:04.273Z,17.87
2019-03-23T15:52:39.483Z,18.13
2019-03-23T15:54:14.390Z,20.53
2019-03-23T15:55:49.343Z,18.97
2019-03-23T15:57:24.363Z,15.73
2019-03-23T15:58:59.545Z,17.90
2019-03-23T16:00:34.518Z,18.77
2019-03-23T16:02:09.542Z,17.73
2019-03-23T16:03:44.867Z,16.93
2019-03-23T16:05:19.846Z,22.17
2019-03-23T16:06:56.757Z,18.93
2019-03-23T16:08:31.403Z,21.47
2019-03-23T16:10:07.373Z,21.70
2019-03-23T16:11:42.575Z,19.67
2019-03-23T16:13:18.294Z,19.47
2019-03-23T16:14:53.470Z,18.27
2019-03-23T16:16:28.380Z,18.43
2019-03-23T16:18:03.615Z,18.07
2019-03-23T16:19:38.797Z,18.23
2019-03-23T16:21:13.701Z,15.93
2019-03-23T16:22:48.593Z,17.77
2019-03-23T16:24:23.494Z,18.53
2019-03-23T16:25:58.434Z,19.67
2019-03-23T16:27:33.602Z,18.30
2019-03-23T16:29:09.703Z,21.03
2019-03-23T16:30:44.766Z,22.33
2019-03-23T16:32:19.720Z,20.97
2019-03-23T16:33:55.193Z,19.60
2019-03-23T16:35:30.828Z,19.87
2019-03-23T16:37:06.498Z,21.13
2019-03-23T16:38:42.644Z,24.87
2019-03-23T16:40:18.342Z,21.67
2019-03-23T16:41:54.482Z,25.47
2019-03-23T16:43:30.405Z,23.40
2019-03-23T16:45:09.267Z,23.00
2019-03-23T16:46:45.367Z,20.17
2019-03-23T16:48:21.217Z,23.30
2019-03-23T16:49:56.820Z,22.87
2019-03-23T16:51:32.445Z,22.07
2019-03-23T16:53:07.390Z,22.10
2019-03-23T16:54:43.440Z,22.67
2019-03-23T16:56:19.325Z,22.20
2019-03-23T16:57:54.918Z,25.63
2019-03-23T16:59:30.774Z,23.50
2019-03-23T17:01:06.715Z,24.13
2019-03-23T17:02:41.765Z,27.33
2019-03-23T17:04:16.890Z,23.63
2019-03-23T17:05:51.793Z,27.73
2019-03-23T17:07:26.695Z,28.67
2019-03-23T17:09:01.630Z,29.13
2019-03-23T17:10:36.782Z,27.00
2019-03-23T17:12:11.678Z,30.47
2019-03-23T17:13:46.836Z,31.73
2019-03-23T17:15:21.754Z,30.83
2019-03-23T17:16:56.750Z,31.87
2019-03-23T17:18:31.725Z,32.67
2019-03-23T17:20:07.901Z,35.57
2019-03-23T17:21:42.846Z,39.67
2019-03-23T17:23:17.745Z,40.90
2019-03-23T17:24:52.634Z,40.20
2019-03-23T17:26:28.043Z,42.73
2019-03-23T17:28:03.199Z,47.23
2019-03-23T17:29:38.090Z,50.10
2019-03-23T17:31:13.235Z,54.53
2019-03-23T17:32:48.143Z,54.30
2019-03-23T17:34:23.318Z,49.93
2019-03-23T17:35:58.942Z,59.97
2019-03-23T17:37:33.849Z,59.37
2019-03-23T17:39:08.840Z,59.97
2019-03-23T17:40:43.983Z,58.30
2019-03-23T17:42:18.942Z,62.47
2019-03-23T17:43:54.151Z,65.47
2019-03-23T17:45:29.092Z,67.90
2019-03-23T17:47:04.098Z,65.87
2019-03-23T17:48:39.002Z,62.47
2019-03-23T17:50:14.149Z,69.10
2019-03-23T17:51:49.063Z,70.13
2019-03-23T17:53:25.184Z,69.43
2019-03-23T17:55:00.997Z,66.87
2019-03-23T17:56:36.923Z,66.57
2019-03-23T17:58:12.821Z,66.27
2019-03-23T17:59:48.452Z,67.00
2019-03-23T18:01:24.083Z,66.10
2019-03-23T18:03:00.030Z,65.40
2019-03-23T18:04:35.629Z,66.90
2019-03-23T18:06:11.545Z,63.50
2019-03-23T18:07:47.493Z,68.10
2019-03-23T18:09:23.194Z,66.47
2019-03-23T18:10:58.796Z,64.63
2019-03-23T18:12:33.763Z,63.13
2019-03-23T18:14:08.966Z,62.23
2019-03-23T18:15:43.865Z,60.63
2019-03-23T18:17:19.349Z,66.00
2019-03-23T18:18:54.329Z,69.33
2019-03-23T18:20:29.506Z,62.27
2019-03-23T18:22:04.948Z,64.77
2019-03-23T18:23:40.178Z,61.73
2019-03-23T18:25:15.413Z,61.07
2019-03-23T18:26:50.579Z,62.67
2019-03-23T18:28:26.287Z,61.63
2019-03-23T18:30:01.198Z,59.43
2019-03-23T18:31:36.105Z,67.33
2019-03-23T18:33:11.258Z,61.40
2019-03-23T18:34:46.481Z,65.90
2019-03-23T18:36:21.374Z,66.77
2019-03-23T18:37:56.277Z,64.57
2019-03-23T18:39:31.263Z,63.17
2019-03-23T18:41:06.271Z,66.50
2019-03-23T18:42:41.539Z,68.17
2019-03-23T18:44:16.820Z,62.83
2019-03-23T18:45:52.214Z,63.23
2019-03-23T18:47:27.221Z,60.80
2019-03-23T18:49:02.426Z,60.57
2019-03-23T18:50:37.406Z,58.50
2019-03-23T18:52:12.626Z,61.80
2019-03-23T18:53:47.577Z,58.43
2019-03-23T18:55:22.482Z,53.60
2019-03-23T18:56:57.484Z,62.20
2019-03-23T18:58:32.678Z,60.17
2019-03-23T19:00:08.710Z,57.70
2019-03-23T19:01:43.635Z,56.40
2019-03-23T19:03:18.587Z,61.00
2019-03-23T19:04:53.493Z,58.60
2019-03-23T19:06:28.429Z,59.53
2019-03-23T19:08:03.488Z,56.23
2019-03-23T19:09:38.933Z,55.93
2019-03-23T19:11:15.031Z,50.40
2019-03-23T19:12:50.078Z,53.53
2019-03-23T19:14:24.995Z,52.37
2019-03-23T19:16:00.241Z,49.00
2019-03-23T19:17:35.154Z,49.53
2019-03-23T19:19:10.119Z,49.03
2019-03-23T19:20:45.035Z,49.23
2019-03-23T19:22:19.950Z,48.77
2019-03-23T19:23:54.866Z,50.70
2019-03-23T19:25:29.872Z,47.93
2019-03-23T19:27:05.299Z,44.77
2019-03-23T19:28:40.284Z,45.47
2019-03-23T19:30:15.569Z,51.47
2019-03-23T19:31:50.494Z,51.07
2019-03-23T19:33:25.423Z,51.00
2019-03-23T19:35:00.390Z,46.17
2019-03-23T19:36:35.896Z,50.20
2019-03-23T19:38:11.138Z,51.17
2019-03-23T19:39:46.340Z,52.87
2019-03-23T19:41:22.214Z,54.73
2019-03-23T19:42:59.484Z,53.30
2019-03-23T19:44:34.106Z,56.90
2019-03-23T19:46:09.310Z,54.53
2019-03-23T19:47:44.544Z,54.60
2019-03-23T19:49:19.454Z,54.73
2019-03-23T19:50:54.478Z,55.07
2019-03-23T19:52:29.393Z,53.83
2019-03-23T19:54:04.968Z,56.37
2019-03-23T19:55:40.299Z,55.73
2019-03-23T19:57:15.349Z,56.20
2019-03-23T19:58:50.259Z,50.83
2019-03-23T20:00:25.255Z,49.30
2019-03-23T20:02:00.232Z,50.37
2019-03-23T20:03:35.336Z,48.67
2019-03-23T20:05:10.670Z,47.43
2019-03-23T20:06:45.912Z,51.00
2019-03-23T20:08:20.827Z,48.60
2019-03-23T20:09:55.830Z,49.40
2019-03-23T20:11:30.861Z,49.53
2019-03-23T20:13:05.981Z,50.33
2019-03-23T20:14:41.798Z,45.23
2019-03-23T20:16:16.880Z,52.80
2019-03-23T20:17:51.799Z,49.57
2019-03-23T20:19:26.693Z,47.70
2019-03-23T20:21:01.878Z,49.37
2019-03-23T20:22:36.898Z,51.03
2019-03-23T20:24:12.184Z,51.60
2019-03-23T20:25:47.671Z,51.90
2019-03-23T20:27:22.960Z,52.03
2019-03-23T20:28:57.988Z,52.20
2019-03-23T20:30:33.002Z,50.33
2019-03-23T20:32:08.299Z,49.47
2019-03-23T20:33:43.495Z,48.77
2019-03-23T20:35:18.419Z,45.73
2019-03-23T20:36:53.659Z,51.10
2019-03-23T20:38:28.962Z,48.00
2019-03-23T20:40:04.565Z,49.93
2019-03-23T20:41:39.562Z,55.23
2019-03-23T20:43:14.580Z,51.87
2019-03-23T20:44:49.477Z,53.07
2019-03-23T20:46:25.198Z,54.50
2019-03-23T20:48:00.581Z,51.37
2019-03-23T20:49:35.835Z,53.93
2019-03-23T20:51:11.681Z,51.23
2019-03-23T20:52:47.144Z,53.00
2019-03-23T20:54:22.145Z,53.77
2019-03-23T20:55:57.203Z,56.33
2019-03-23T20:57:37.449Z,52.47
2019-03-23T20:59:09.404Z,54.00
2019-03-23T21:00:44.399Z,54.17
2019-03-23T21:02:19.453Z,51.63
2019-03-23T21:03:54.375Z,57.30
2019-03-23T21:05:34.152Z,58.70
2019-03-23T21:07:06.510Z,60.60
2019-03-23T21:08:41.411Z,55.70